createdAt,value
2017-06-10T04:55:35.764Z,13.00
2017-06-10T04:58:02.580Z,11.73
2017-06-10T05:00:29.372Z,13.63
2017-06-10T05:02:56.190Z,10.27
2017-06-10T05:05:22.961Z,12.10
2017-06-10T05:07:49.722Z,12.30
2017-06-10T05:10:16.532Z,12.13
2017-06-10T05:12:43.315Z,10.50
2017-06-10T05:15:10.104Z,12.10
2017-06-10T05:17:36.901Z,12.40
2017-06-10T05:20:03.679Z,12.80
2017-06-10T05:22:30.443Z,13.80
2017-06-10T05:24:57.241Z,11.50
2017-06-10T05:27:24.041Z,12.87
2017-06-10T05:29:50.816Z,13.80
2017-06-10T05:32:17.622Z,12.93
2017-06-10T05:34:44.409Z,14.23
2017-06-10T05:37:11.209Z,13.10
2017-06-10T05:39:37.999Z,12.60
2017-06-10T05:42:04.812Z,14.37
2017-06-10T05:44:31.571Z,13.40
2017-06-10T05:46:58.386Z,13.83
2017-06-10T05:49:25.182Z,12.77
2017-06-10T05:51:51.943Z,16.00
2017-06-10T05:54:18.739Z,14.70
2017-06-10T05:56:45.518Z,13.13
2017-06-10T05:59:12.267Z,12.50
2017-06-10T06:01:39.082Z,13.00
2017-06-10T06:04:05.869Z,12.40
2017-06-10T06:06:32.615Z,13.17
2017-06-10T06:08:59.437Z,11.90
2017-06-10T06:11:26.195Z,12.80
2017-06-10T06:13:53.002Z,12.03
2017-06-10T06:16:19.786Z,11.77
2017-06-10T06:18:46.558Z,11.17
2017-06-10T06:21:13.329Z,12.97
2017-06-10T06:23:40.148Z,9.43
2017-06-10T06:26:06.903Z,10.27
2017-06-10T06:28:33.678Z,10.47
2017-06-10T06:31:00.501Z,9.43
2017-06-10T06:33:27.251Z,10.60
2017-06-10T06:35:54.020Z,11.10
2017-06-10T06:38:20.803Z,9.40
2017-06-10T06:40:47.605Z,10.00
2017-06-10T06:43:14.373Z,9.70
2017-06-10T06:45:41.156Z,9.73
2017-06-10T06:48:07.920Z,7.50
2017-06-10T06:50:34.710Z,9.00
2017-06-10T06:53:01.591Z,7.13
2017-06-10T06:55:28.374Z,7.63
2017-06-10T06:57:55.128Z,7.03
2017-06-10T07:00:21.933Z,6.43
2017-06-10T07:02:48.714Z,6.77
2017-06-10T07:05:15.494Z,6.73
2017-06-10T07:07:42.309Z,5.23
2017-06-10T07:10:09.148Z,6.60
2017-06-10T07:12:35.923Z,6.63
2017-06-10T07:15:02.738Z,7.63
2017-06-10T07:17:29.503Z,7.83
2017-06-10T07:19:56.276Z,7.20
2017-06-10T07:22:23.090Z,5.80
2017-06-10T07:24:49.865Z,8.20
2017-06-10T07:27:16.638Z,5.97
2017-06-10T07:29:43.559Z,6.87
2017-06-10T07:32:10.403Z,7.30
2017-06-10T07:34:37.287Z,7.50
2017-06-10T07:37:04.185Z,5.20
2017-06-10T07:39:30.957Z,7.73
2017-06-10T07:41:57.838Z,7.03
2017-06-10T07:44:24.663Z,7.60
2017-06-10T07:46:51.511Z,6.37
2017-06-10T07:49:18.348Z,6.63
2017-06-10T07:51:45.162Z,7.70
2017-06-10T07:54:11.920Z,6.47
2017-06-10T07:56:38.709Z,6.50
2017-06-10T07:59:05.565Z,4.30
2017-06-10T08:01:32.349Z,7.20
2017-06-10T08:03:59.134Z,5.67
2017-06-10T08:06:25.930Z,6.13
2017-06-10T08:08:52.706Z,6.40
2017-06-10T08:11:19.464Z,6.90
2017-06-10T08:13:46.264Z,9.07
2017-06-10T08:16:13.055Z,7.77
2017-06-10T08:18:39.892Z,8.50
2017-06-10T08:21:06.713Z,7.43
2017-06-10T08:23:33.504Z,7.50
2017-06-10T08:26:00.320Z,6.10
2017-06-10T08:28:27.134Z,6.23
2017-06-10T08:30:53.975Z,6.90
2017-06-10T08:33:20.794Z,5.40
2017-06-10T08:35:47.733Z,5.10
2017-06-10T08:38:14.500Z,4.80
2017-06-10T08:40:41.374Z,4.10
2017-06-10T08:43:08.219Z,5.07
2017-06-10T08:45:35.072Z,3.83
2017-06-10T08:48:01.872Z,4.20
2017-06-10T08:50:28.691Z,4.90
2017-06-10T08:52:55.475Z,4.20
2017-06-10T08:55:22.250Z,3.50
2017-06-10T08:57:49.041Z,4.80
2017-06-10T09:00:15.829Z,3.80
2017-06-10T09:02:42.640Z,4.57
2017-06-10T09:05:09.418Z,3.60
2017-06-10T09:07:36.245Z,3.80
2017-06-10T09:10:03.061Z,4.43
2017-06-10T09:12:30.713Z,4.60
2017-06-10T09:14:57.464Z,4.07
2017-06-10T09:17:24.337Z,3.30
2017-06-10T09:19:51.155Z,2.80
2017-06-10T09:22:18.015Z,3.50
2017-06-10T09:24:45.016Z,2.80
2017-06-10T09:27:11.840Z,3.47
2017-06-10T09:29:38.617Z,3.90
2017-06-10T09:32:05.467Z,3.70
2017-06-10T09:34:32.311Z,3.63
2017-06-10T09:36:59.138Z,3.90
2017-06-10T09:39:25.968Z,5.37
2017-06-10T09:41:52.775Z,4.20
2017-06-10T09:44:19.578Z,3.93
2017-06-10T09:46:46.319Z,3.33
2017-06-10T09:49:13.178Z,3.30
2017-06-10T09:51:39.985Z,5.80
2017-06-10T09:54:23.564Z,4.07
2017-06-10T09:56:50.917Z,4.10
2017-06-10T09:59:17.695Z,3.27
2017-06-10T10:01:44.498Z,3.20
2017-06-10T10:06:49.555Z,4.10
2017-06-10T10:09:16.382Z,3.80
2017-06-10T10:11:43.144Z,3.47
2017-06-10T10:14:09.943Z,2.63
2017-06-10T10:16:36.730Z,3.93
2017-06-10T10:19:03.583Z,3.13
2017-06-10T10:21:30.386Z,2.53
2017-06-10T10:23:57.163Z,2.97
2017-06-10T10:26:23.950Z,3.20
2017-06-10T10:28:50.783Z,2.83
2017-06-10T10:31:17.562Z,49.37
2017-06-10T10:33:44.403Z,3.20
2017-06-10T10:36:11.220Z,3.40
2017-06-10T10:38:37.990Z,2.57
2017-06-10T10:41:04.790Z,2.50
2017-06-10T10:43:31.648Z,2.30
2017-06-10T10:45:58.404Z,2.60
2017-06-10T10:48:25.196Z,3.30
2017-06-10T10:50:52.017Z,2.80
2017-06-10T10:53:18.851Z,2.00
2017-06-10T10:55:45.689Z,2.50
2017-06-10T10:58:12.542Z,3.40
2017-06-10T11:00:39.319Z,3.50
2017-06-10T11:03:06.091Z,3.77
2017-06-10T11:05:32.938Z,3.37
2017-06-10T11:07:59.704Z,3.37
2017-06-10T11:10:26.535Z,3.13
2017-06-10T11:12:53.354Z,3.47
2017-06-10T11:15:20.129Z,2.93
2017-06-10T11:17:46.891Z,2.37
2017-06-10T11:20:13.675Z,3.37
2017-06-10T11:22:40.452Z,2.80
2017-06-10T11:25:07.213Z,2.33
2017-06-10T11:27:34.020Z,3.50
2017-06-10T11:30:00.779Z,2.30
2017-06-10T11:32:27.527Z,3.07
2017-06-10T11:34:54.334Z,2.93
2017-06-10T11:37:21.100Z,2.37
2017-06-10T11:39:47.869Z,3.00
2017-06-10T11:42:14.706Z,1.73
2017-06-10T11:44:41.469Z,1.80
2017-06-10T11:47:08.259Z,1.93
2017-06-10T11:49:35.104Z,2.27
2017-06-10T11:52:01.900Z,2.30
2017-06-10T11:54:28.719Z,2.50
2017-06-10T11:56:55.500Z,3.00
2017-06-10T11:59:22.270Z,2.67
2017-06-10T12:01:49.065Z,2.70
2017-06-10T12:04:15.835Z,2.20
2017-06-10T12:06:42.605Z,2.73
2017-06-10T12:09:09.362Z,1.37
2017-06-10T12:11:36.155Z,0.83
2017-06-10T12:14:02.951Z,1.87
2017-06-10T12:16:29.762Z,2.33
2017-06-10T12:18:56.571Z,2.77
2017-06-10T12:21:23.381Z,2.20
2017-06-10T12:23:50.217Z,2.90
2017-06-10T12:26:17.016Z,1.17
2017-06-10T12:28:43.788Z,2.20
2017-06-10T12:31:10.546Z,2.53
2017-06-10T12:33:37.451Z,1.73
2017-06-10T12:36:04.248Z,2.10
2017-06-10T12:38:31.008Z,1.90
2017-06-10T12:40:57.797Z,2.20
2017-06-10T12:43:24.557Z,2.40
2017-06-10T12:45:51.340Z,2.03
2017-06-10T12:48:18.135Z,2.30
2017-06-10T12:50:45.129Z,1.90
2017-06-10T12:53:11.949Z,2.47
2017-06-10T12:55:38.866Z,2.27
2017-06-10T12:58:05.635Z,1.80
2017-06-10T13:00:32.443Z,1.57
2017-06-10T13:02:59.232Z,1.77
2017-06-10T13:05:25.984Z,3.00
2017-06-10T13:07:52.746Z,1.60
2017-06-10T13:10:19.537Z,0.60
2017-06-10T13:12:46.294Z,2.33
2017-06-10T13:15:13.059Z,1.37
2017-06-10T13:17:39.843Z,2.03
2017-06-10T13:20:06.612Z,1.90
2017-06-10T13:22:33.355Z,1.00
2017-06-10T13:25:00.149Z,1.33
2017-06-10T13:27:26.904Z,1.50
2017-06-10T13:29:53.682Z,1.87
2017-06-10T13:32:20.486Z,1.60
2017-06-10T13:34:47.275Z,1.50
2017-06-10T13:37:14.028Z,2.23
2017-06-10T13:39:40.812Z,2.13
2017-06-10T13:42:07.591Z,1.77
2017-06-10T13:44:34.337Z,2.07
2017-06-10T13:47:01.121Z,0.77
2017-06-10T13:49:27.876Z,1.70
2017-06-10T13:51:54.647Z,0.80
2017-06-10T13:54:21.425Z,1.60
2017-06-10T13:56:48.163Z,1.80
2017-06-10T13:59:14.903Z,1.50
2017-06-10T14:01:41.706Z,1.87
2017-06-10T14:04:08.439Z,1.63
2017-06-10T14:06:35.222Z,2.03
2017-06-10T14:09:02.017Z,1.60
2017-06-10T14:11:28.790Z,1.70
2017-06-10T14:13:55.554Z,1.20
2017-06-10T14:16:22.351Z,2.30
2017-06-10T14:18:49.097Z,1.80
2017-06-10T14:21:15.859Z,2.10
2017-06-10T14:23:42.665Z,1.27
2017-06-10T14:26:09.426Z,1.67
2017-06-10T14:28:36.181Z,1.57
2017-06-10T14:31:02.959Z,2.90
2017-06-10T14:33:29.722Z,2.30
2017-06-10T14:35:56.466Z,1.80
2017-06-10T14:38:23.252Z,0.93
2017-06-10T14:40:50.013Z,1.60
2017-06-10T14:43:16.763Z,1.50
2017-06-10T14:45:43.929Z,1.33
2017-06-10T14:48:10.706Z,1.80
2017-06-10T14:50:37.490Z,1.90
2017-06-10T14:53:04.291Z,1.27
2017-06-10T14:55:31.046Z,1.60
2017-06-10T14:57:57.840Z,1.60
2017-06-10T15:00:24.637Z,1.33
2017-06-10T15:02:51.410Z,1.50
2017-06-10T15:05:18.183Z,1.70
2017-06-10T15:07:44.995Z,1.80
2017-06-10T15:10:11.762Z,1.43
2017-06-10T15:12:38.530Z,1.90
2017-06-10T15:15:05.326Z,1.47
2017-06-10T15:17:32.095Z,1.70
2017-06-10T15:19:58.943Z,1.93
2017-06-10T15:22:25.734Z,1.83
2017-06-10T15:24:52.502Z,1.70
2017-06-10T15:27:19.267Z,1.77
2017-06-10T15:29:46.069Z,1.37
2017-06-10T15:32:12.827Z,1.40
2017-06-10T15:34:39.617Z,1.77
2017-06-10T15:37:06.444Z,1.60
2017-06-10T15:39:33.213Z,2.37
2017-06-10T15:42:00.038Z,2.37
2017-06-10T15:44:26.842Z,2.53
2017-06-10T15:46:54.369Z,2.30
2017-06-10T15:49:21.170Z,2.10
2017-06-10T15:51:47.962Z,1.90
2017-06-10T15:54:14.734Z,2.40
2017-06-10T15:56:41.502Z,2.07
2017-06-10T15:59:08.320Z,1.83
2017-06-10T16:01:35.091Z,2.27
2017-06-10T16:04:01.853Z,1.90
2017-06-10T16:06:28.637Z,1.67
2017-06-10T16:08:55.457Z,2.57
2017-06-10T16:11:22.195Z,1.53
2017-06-10T16:13:49.025Z,2.10
2017-06-10T16:16:15.796Z,1.90
2017-06-10T16:18:42.560Z,2.13
2017-06-10T16:21:09.354Z,1.77
2017-06-10T16:23:36.126Z,2.23
2017-06-10T16:26:02.895Z,2.13
2017-06-10T16:28:29.697Z,2.20
2017-06-10T16:30:57.343Z,2.80
2017-06-10T16:33:24.164Z,2.70
2017-06-10T16:35:50.974Z,2.90
2017-06-10T16:38:17.752Z,2.30
2017-06-10T16:40:44.503Z,2.30
2017-06-10T16:43:11.318Z,2.90
2017-06-10T16:45:38.087Z,2.70
2017-06-10T16:48:04.885Z,2.50
2017-06-10T16:50:31.703Z,2.63
2017-06-10T16:52:58.466Z,2.07
2017-06-10T16:55:25.219Z,3.73
2017-06-10T16:57:52.030Z,2.53
2017-06-10T17:00:18.786Z,1.97
2017-06-10T17:02:45.559Z,2.60
2017-06-10T17:05:12.454Z,2.53
2017-06-10T17:07:39.252Z,2.57
2017-06-10T17:10:06.051Z,2.40
2017-06-10T17:12:32.865Z,2.90
2017-06-10T17:14:59.631Z,3.80
2017-06-10T17:17:26.466Z,3.00
2017-06-10T17:19:53.324Z,2.93
2017-06-10T17:22:20.106Z,2.50
2017-06-10T17:24:46.874Z,2.30
2017-06-10T17:27:13.932Z,2.23
2017-06-10T17:29:40.721Z,2.53
2017-06-10T17:32:07.560Z,2.80
2017-06-10T17:34:34.398Z,2.70
2017-06-10T17:37:01.240Z,2.70
2017-06-10T17:39:28.007Z,2.67
2017-06-10T17:41:54.813Z,2.50
2017-06-10T17:44:21.604Z,2.57
2017-06-10T17:46:48.379Z,2.70
2017-06-10T17:49:15.192Z,2.20
2017-06-10T17:51:41.962Z,2.70
2017-06-10T17:54:08.719Z,2.53
2017-06-10T17:56:35.530Z,2.87
2017-06-10T17:59:02.287Z,3.70
2017-06-10T18:01:29.053Z,2.83
2017-06-10T18:03:55.848Z,2.80
2017-06-10T18:06:22.641Z,4.20
2017-06-10T18:08:49.410Z,3.40
2017-06-10T18:11:16.226Z,2.77
2017-06-10T18:13:42.985Z,2.70
2017-06-10T18:16:09.782Z,3.10
2017-06-10T18:18:36.605Z,3.60
2017-06-10T18:21:03.432Z,4.37
2017-06-10T18:23:30.242Z,2.90
2017-06-10T18:26:02.707Z,2.90
2017-06-10T18:28:29.515Z,3.13
2017-06-10T18:31:11.187Z,3.40
2017-06-10T18:33:37.962Z,3.30
2017-06-10T18:36:04.756Z,3.17
2017-06-10T18:38:31.552Z,2.87
2017-06-10T18:40:58.353Z,3.60
2017-06-10T18:43:25.117Z,3.70
2017-06-10T18:45:51.969Z,3.37
2017-06-10T18:48:18.740Z,3.40
2017-06-10T18:50:45.530Z,3.23
2017-06-10T18:53:12.359Z,2.63
2017-06-10T18:55:39.154Z,3.70
2017-06-10T18:58:05.958Z,3.30
2017-06-10T19:00:32.786Z,3.50
2017-06-10T19:02:59.560Z,2.70
2017-06-10T19:05:26.354Z,2.77
2017-06-10T19:07:53.163Z,3.07
2017-06-10T19:10:19.919Z,3.00
2017-06-10T19:12:46.711Z,3.30
2017-06-10T19:15:13.530Z,3.60
2017-06-10T19:17:40.279Z,3.30
2017-06-10T19:20:07.021Z,4.83
2017-06-10T19:22:33.834Z,3.70
2017-06-10T19:25:00.582Z,4.07
2017-06-10T19:27:27.367Z,3.37
2017-06-10T19:29:54.179Z,3.73
2017-06-10T19:32:20.927Z,3.93
2017-06-10T19:34:47.699Z,4.63
2017-06-10T19:37:14.517Z,4.60
2017-06-10T19:39:41.326Z,4.43
2017-06-10T19:42:08.114Z,3.97
2017-06-10T19:44:34.932Z,4.07
2017-06-10T19:47:01.684Z,3.93
2017-06-10T19:49:28.477Z,3.37
2017-06-10T19:51:55.267Z,3.13
2017-06-10T19:54:22.025Z,4.90
2017-06-10T19:56:48.787Z,4.60
2017-06-10T19:59:15.640Z,4.60
2017-06-10T20:01:42.410Z,4.60
2017-06-10T20:04:09.178Z,4.53
2017-06-10T20:06:36.005Z,3.90
2017-06-10T20:09:02.839Z,4.60
2017-06-10T20:11:29.620Z,4.00
2017-06-10T20:13:56.850Z,5.00
2017-06-10T20:16:23.645Z,5.30
2017-06-10T20:18:50.415Z,4.53
2017-06-10T20:21:17.242Z,4.90
2017-06-10T20:23:44.062Z,4.50
2017-06-10T20:26:10.850Z,5.40
2017-06-10T20:28:37.746Z,5.80
2017-06-10T20:31:04.594Z,4.77
2017-06-10T20:33:31.393Z,4.37
2017-06-10T20:35:58.192Z,4.73
2017-06-10T20:38:24.988Z,4.57
2017-06-10T20:40:51.745Z,4.50
2017-06-10T20:43:18.559Z,4.57
2017-06-10T20:45:45.342Z,4.37
2017-06-10T20:48:12.641Z,4.20
2017-06-10T20:50:39.460Z,4.50
2017-06-10T20:53:06.216Z,4.50
2017-06-10T20:55:33.059Z,5.30
2017-06-10T20:57:59.895Z,4.30
2017-06-10T21:00:26.668Z,5.90
2017-06-10T21:02:53.443Z,4.63
2017-06-10T21:05:20.266Z,4.50
2017-06-10T21:07:47.073Z,4.40
2017-06-10T21:10:13.825Z,4.40
2017-06-10T21:12:40.670Z,4.57
2017-06-10T21:15:07.425Z,6.10
2017-06-10T21:17:34.187Z,4.80
2017-06-10T21:20:00.969Z,4.73
2017-06-10T21:22:27.720Z,5.13
2017-06-10T21:24:54.514Z,4.93
2017-06-10T21:27:21.351Z,4.80
2017-06-10T21:29:48.140Z,4.53
2017-06-10T21:32:14.900Z,5.50
2017-06-10T21:34:41.717Z,6.17
2017-06-10T21:37:08.478Z,4.93
2017-06-10T21:39:35.239Z,5.03
2017-06-10T21:42:02.046Z,4.60
2017-06-10T21:44:28.803Z,4.83
2017-06-10T21:46:55.586Z,5.50
2017-06-10T21:49:22.475Z,5.20
2017-06-10T21:51:49.258Z,4.40
2017-06-10T21:54:16.148Z,5.60
2017-06-10T21:56:42.990Z,6.13
2017-06-10T21:59:09.737Z,5.97
2017-06-10T22:01:36.484Z,6.50
2017-06-10T22:04:03.306Z,5.13
2017-06-10T22:06:30.127Z,4.83
2017-06-10T22:08:56.924Z,5.40
2017-06-10T22:11:23.807Z,4.93
2017-06-10T22:13:50.590Z,5.30
2017-06-10T22:16:17.392Z,4.90
2017-06-10T22:18:44.183Z,5.67
2017-06-10T22:21:10.954Z,5.80
